createdAt,value
2019-02-21T00:00:24.183Z,12.40
2019-02-21T00:01:18.416Z,13.00
2019-02-21T00:02:18.409Z,14.20
2019-02-21T00:03:18.406Z,11.80
2019-02-21T00:04:18.397Z,11.90
2019-02-21T00:05:18.390Z,13.20
2019-02-21T00:06:18.380Z,13.20
2019-02-21T00:07:18.376Z,12.20
2019-02-21T00:08:18.366Z,15.60
2019-02-21T00:09:18.359Z,12.40
2019-02-21T00:10:18.351Z,13.50
2019-02-21T00:11:18.345Z,12.10
2019-02-21T00:12:18.400Z,13.20
2019-02-21T00:13:18.332Z,13.50
2019-02-21T00:14:18.324Z,14.40
2019-02-21T00:15:18.317Z,14.50
2019-02-21T00:16:18.307Z,13.10
2019-02-21T00:17:18.300Z,11.60
2019-02-21T00:18:18.299Z,12.40
2019-02-21T00:19:18.292Z,14.50
2019-02-21T00:20:18.280Z,11.40
2019-02-21T00:21:18.275Z,13.40
2019-02-21T00:22:18.273Z,13.90
2019-02-21T00:23:18.266Z,15.50
2019-02-21T00:24:18.254Z,13.50
2019-02-21T00:25:18.243Z,14.50
2019-02-21T00:26:18.236Z,13.50
2019-02-21T00:27:18.231Z,14.10
2019-02-21T00:28:18.223Z,13.80
2019-02-21T00:29:18.239Z,12.60
2019-02-21T00:30:18.208Z,12.50
2019-02-21T00:31:18.199Z,14.90
2019-02-21T00:32:18.195Z,12.90
2019-02-21T00:33:18.191Z,12.70
2019-02-21T00:34:18.180Z,13.10
2019-02-21T00:35:18.179Z,13.50
2019-02-21T00:36:18.169Z,14.80
2019-02-21T00:37:18.159Z,13.80
2019-02-21T00:38:18.151Z,13.00
2019-02-21T00:39:18.145Z,12.70
2019-02-21T00:40:18.137Z,13.90
2019-02-21T00:41:18.132Z,14.40
2019-02-21T00:42:18.123Z,13.20
2019-02-21T00:43:18.122Z,12.60
2019-02-21T00:44:18.112Z,14.90
2019-02-21T00:45:18.102Z,13.70
2019-02-21T00:46:18.093Z,14.90
2019-02-21T00:47:18.089Z,15.30
2019-02-21T00:48:18.084Z,13.60
2019-02-21T00:49:18.077Z,13.40
2019-02-21T00:50:18.066Z,13.20
2019-02-21T00:51:18.060Z,11.70
2019-02-21T00:52:18.063Z,14.00
2019-02-21T00:53:18.048Z,11.80
2019-02-21T00:54:18.036Z,13.10
2019-02-21T00:55:18.032Z,13.10
2019-02-21T00:56:18.024Z,12.80
2019-02-21T00:57:18.019Z,13.00
2019-02-21T00:58:18.009Z,12.40
2019-02-21T00:59:18.005Z,10.90
2019-02-21T01:00:18.002Z,12.40
2019-02-21T01:01:20.692Z,14.30
2019-02-21T01:02:17.986Z,12.30
2019-02-21T01:03:17.974Z,13.60
2019-02-21T01:04:17.972Z,11.70
2019-02-21T01:05:17.962Z,12.80
2019-02-21T01:06:17.952Z,12.50
2019-02-21T01:07:17.950Z,15.60
2019-02-21T01:08:17.962Z,12.70
2019-02-21T01:09:17.931Z,13.50
2019-02-21T01:10:17.924Z,13.80
2019-02-21T01:11:17.918Z,12.40
2019-02-21T01:12:17.912Z,11.30
2019-02-21T01:13:17.904Z,14.20
2019-02-21T01:14:17.900Z,13.70
2019-02-21T01:15:17.896Z,12.90
2019-02-21T01:16:17.888Z,14.40
2019-02-21T01:17:17.882Z,13.10
2019-02-21T01:18:17.866Z,13.30
2019-02-21T01:19:17.864Z,12.50
2019-02-21T01:20:17.852Z,14.10
2019-02-21T01:21:17.848Z,16.20
2019-02-21T01:22:17.845Z,12.00
2019-02-21T01:23:17.831Z,12.60
2019-02-21T01:24:17.828Z,12.00
2019-02-21T01:25:17.821Z,11.60
2019-02-21T01:26:17.900Z,12.30
2019-02-21T01:27:17.810Z,13.30
2019-02-21T01:28:17.801Z,14.30
2019-02-21T01:29:17.790Z,12.20
2019-02-21T01:30:17.786Z,14.00
2019-02-21T01:31:17.780Z,13.70
2019-02-21T01:32:17.774Z,13.00
2019-02-21T01:33:17.761Z,11.90
2019-02-21T01:34:17.757Z,11.00
2019-02-21T01:35:17.749Z,10.70
2019-02-21T01:36:17.743Z,10.80
2019-02-21T01:37:17.737Z,12.70
2019-02-21T01:38:17.728Z,11.90
2019-02-21T01:39:17.724Z,11.20
2019-02-21T01:40:17.713Z,12.60
2019-02-21T01:41:17.704Z,12.80
2019-02-21T01:42:17.699Z,11.90
2019-02-21T01:43:17.691Z,12.70
2019-02-21T01:44:17.688Z,13.00
2019-02-21T01:45:17.682Z,11.00
2019-02-21T01:46:17.670Z,13.30
2019-02-21T01:47:17.663Z,11.20
2019-02-21T01:48:17.656Z,11.40
2019-02-21T01:49:17.654Z,9.80
2019-02-21T01:50:17.652Z,12.40
2019-02-21T01:51:17.637Z,10.10
2019-02-21T01:52:17.628Z,10.60
2019-02-21T01:53:17.619Z,12.90
2019-02-21T01:54:17.614Z,14.30
2019-02-21T01:55:17.607Z,14.00
2019-02-21T01:56:17.601Z,13.10
2019-02-21T01:57:17.593Z,12.10
2019-02-21T01:58:17.586Z,11.40
2019-02-21T01:59:17.580Z,11.80
2019-02-21T02:00:17.573Z,12.10
2019-02-21T02:01:17.564Z,13.40
2019-02-21T02:02:17.557Z,15.20
2019-02-21T02:03:17.553Z,14.60
2019-02-21T02:04:17.544Z,13.80
2019-02-21T02:05:17.537Z,12.70
2019-02-21T02:06:17.531Z,13.10
2019-02-21T02:07:17.524Z,13.30
2019-02-21T02:08:17.516Z,13.20
2019-02-21T02:09:17.508Z,12.80
2019-02-21T02:10:17.504Z,11.70
2019-02-21T02:11:17.496Z,11.90
2019-02-21T02:12:17.486Z,11.80
2019-02-21T02:13:24.495Z,13.30
2019-02-21T02:14:17.471Z,11.00
2019-02-21T02:15:17.465Z,11.10
2019-02-21T02:16:17.494Z,12.70
2019-02-21T02:17:17.452Z,13.70
2019-02-21T02:18:17.446Z,13.30
2019-02-21T02:19:17.438Z,12.40
2019-02-21T02:20:17.434Z,13.50
2019-02-21T02:21:17.424Z,14.00
2019-02-21T02:22:17.420Z,12.80
2019-02-21T02:23:17.410Z,13.10
2019-02-21T02:24:17.409Z,13.90
2019-02-21T02:26:56.497Z,13.30
2019-02-21T02:27:56.472Z,16.20
2019-02-21T02:29:49.349Z,13.60
2019-02-21T02:30:49.333Z,11.90
2019-02-21T02:32:42.206Z,13.30
2019-02-21T02:33:42.191Z,13.10
2019-02-21T02:35:35.069Z,11.00
2019-02-21T02:36:35.049Z,12.80
2019-02-21T02:38:27.923Z,13.50
2019-02-21T02:39:27.909Z,13.10
2019-02-21T02:41:21.293Z,15.10
2019-02-21T02:42:21.283Z,14.20
2019-02-21T02:44:14.723Z,12.80
2019-02-21T02:45:14.704Z,13.80
2019-02-21T02:47:07.590Z,17.10
2019-02-21T02:48:07.575Z,15.00
2019-02-21T02:50:00.454Z,15.90
2019-02-21T02:51:00.436Z,14.40
2019-02-21T02:52:53.330Z,15.70
2019-02-21T02:53:53.314Z,15.20
2019-02-21T02:55:46.214Z,13.20
2019-02-21T02:56:46.171Z,14.10
2019-02-21T02:57:46.164Z,15.90
2019-02-21T02:58:46.157Z,15.00
2019-02-21T02:59:46.149Z,17.00
2019-02-21T03:00:46.143Z,17.40
2019-02-21T03:01:46.135Z,16.40
2019-02-21T03:02:46.127Z,17.50
2019-02-21T03:03:46.119Z,18.30
2019-02-21T03:04:46.164Z,16.50
2019-02-21T03:05:46.105Z,15.80
2019-02-21T03:06:46.098Z,17.00
2019-02-21T03:07:46.095Z,19.60
2019-02-21T03:08:46.085Z,16.60
2019-02-21T03:09:46.084Z,17.10
2019-02-21T03:10:46.074Z,19.50
2019-02-21T03:11:46.066Z,17.50
2019-02-21T03:12:46.059Z,18.40
2019-02-21T03:13:46.049Z,16.00
2019-02-21T03:14:46.045Z,17.00
2019-02-21T03:15:46.036Z,17.10
2019-02-21T03:16:46.028Z,17.10
2019-02-21T03:17:46.022Z,18.60
2019-02-21T03:18:46.015Z,18.50
2019-02-21T03:19:46.012Z,15.90
2019-02-21T03:20:46.003Z,19.50
2019-02-21T03:21:45.996Z,16.10
2019-02-21T03:22:45.991Z,16.70
2019-02-21T03:23:45.980Z,17.00
2019-02-21T03:24:45.977Z,17.50
2019-02-21T03:25:45.968Z,17.50
2019-02-21T03:26:45.958Z,20.20
2019-02-21T03:27:45.954Z,19.40
2019-02-21T03:28:45.949Z,18.70
2019-02-21T03:29:45.936Z,18.60
2019-02-21T03:30:45.934Z,18.50
2019-02-21T03:31:54.754Z,21.00
2019-02-21T03:32:45.919Z,18.20
2019-02-21T03:33:45.958Z,20.00
2019-02-21T03:34:45.912Z,17.80
2019-02-21T03:35:45.907Z,20.80
2019-02-21T03:36:45.928Z,20.10
2019-02-21T03:37:45.938Z,19.50
2019-02-21T03:38:45.876Z,19.70
2019-02-21T03:39:45.867Z,18.60
2019-02-21T03:40:45.859Z,18.40
2019-02-21T03:41:45.853Z,20.10
2019-02-21T03:42:45.847Z,18.60
2019-02-21T03:43:45.837Z,20.80
2019-02-21T03:44:45.832Z,22.50
2019-02-21T03:45:45.824Z,23.50
2019-02-21T03:46:45.818Z,19.30
2019-02-21T03:47:45.809Z,20.30
2019-02-21T03:48:45.802Z,21.30
2019-02-21T03:49:45.801Z,21.40
2019-02-21T03:50:45.790Z,20.30
2019-02-21T03:51:45.786Z,19.70
2019-02-21T03:52:45.811Z,20.40
2019-02-21T03:53:45.769Z,21.40
2019-02-21T03:54:45.760Z,20.50
2019-02-21T03:55:45.775Z,20.20
2019-02-21T03:56:45.747Z,21.00
2019-02-21T03:57:45.741Z,21.30
2019-02-21T03:58:45.733Z,19.70
2019-02-21T03:59:45.730Z,22.40
2019-02-21T04:00:45.720Z,21.20
2019-02-21T04:01:45.713Z,24.80
2019-02-21T04:02:45.705Z,22.50
2019-02-21T04:03:45.698Z,21.70
2019-02-21T04:04:45.693Z,21.00
2019-02-21T04:05:45.684Z,20.40
2019-02-21T04:06:45.675Z,20.60
2019-02-21T04:07:45.669Z,25.50
2019-02-21T04:08:45.667Z,20.50
2019-02-21T04:09:45.659Z,21.60
2019-02-21T04:10:45.648Z,21.60
2019-02-21T04:11:45.645Z,20.30
2019-02-21T04:12:45.635Z,21.20
2019-02-21T04:13:45.627Z,21.80
2019-02-21T04:14:45.621Z,22.20
2019-02-21T04:15:45.615Z,23.20
2019-02-21T04:16:45.607Z,22.50
2019-02-21T04:17:45.599Z,21.90
2019-02-21T04:18:45.594Z,23.20
2019-02-21T04:19:45.585Z,20.80
2019-02-21T04:20:45.578Z,23.90
2019-02-21T04:21:45.572Z,22.80
2019-02-21T04:22:45.565Z,24.90
2019-02-21T04:23:45.558Z,24.30
2019-02-21T04:24:45.548Z,23.10
2019-02-21T04:25:45.543Z,23.30
2019-02-21T04:26:45.541Z,23.20
2019-02-21T04:27:45.528Z,23.50
2019-02-21T04:28:45.905Z,25.20
2019-02-21T04:29:45.517Z,23.90
2019-02-21T04:30:45.508Z,22.50
2019-02-21T04:31:45.500Z,26.70
2019-02-21T04:32:45.496Z,24.10
2019-02-21T04:33:45.488Z,25.00
2019-02-21T04:34:45.480Z,25.30
2019-02-21T04:35:45.473Z,25.40
2019-02-21T04:36:45.471Z,26.00
2019-02-21T04:37:45.457Z,25.70
2019-02-21T04:38:45.451Z,24.00
2019-02-21T04:39:45.441Z,25.90
2019-02-21T04:40:45.438Z,25.30
2019-02-21T04:41:45.432Z,26.00
2019-02-21T04:42:45.425Z,26.80
2019-02-21T04:43:45.425Z,26.70
2019-02-21T04:44:45.410Z,26.90
2019-02-21T04:45:45.403Z,26.50
2019-02-21T04:46:45.395Z,26.10
2019-02-21T04:47:45.387Z,26.30
2019-02-21T04:48:45.379Z,28.50
2019-02-21T04:49:45.374Z,25.00
2019-02-21T04:50:45.366Z,26.30
2019-02-21T04:51:45.358Z,26.40
2019-02-21T04:52:45.352Z,29.50
2019-02-21T04:53:45.345Z,28.60
2019-02-21T04:54:45.340Z,27.90
2019-02-21T04:55:45.329Z,26.10
2019-02-21T04:56:45.322Z,26.60
2019-02-21T04:57:45.317Z,29.00
2019-02-21T04:58:45.307Z,30.00
2019-02-21T04:59:45.301Z,27.30
2019-02-21T05:00:45.294Z,27.00
2019-02-21T05:01:45.288Z,29.40
2019-02-21T05:02:45.279Z,29.70
2019-02-21T05:03:45.273Z,32.60
2019-02-21T05:04:45.268Z,30.50
2019-02-21T05:05:45.265Z,30.20
2019-02-21T05:06:45.250Z,31.80
2019-02-21T05:07:45.245Z,31.20
2019-02-21T05:08:45.238Z,30.40
2019-02-21T05:09:57.024Z,32.00
2019-02-21T05:10:45.231Z,33.50
2019-02-21T05:11:45.213Z,32.30
2019-02-21T05:12:45.207Z,29.90
2019-02-21T05:13:45.199Z,34.90
2019-02-21T05:14:45.193Z,33.40
2019-02-21T05:15:45.189Z,31.30
2019-02-21T05:16:45.184Z,33.60
2019-02-21T05:17:45.175Z,33.30
2019-02-21T05:18:45.165Z,33.30
2019-02-21T05:19:45.158Z,32.90
2019-02-21T05:20:45.152Z,32.10
2019-02-21T05:21:45.152Z,35.10
2019-02-21T05:22:45.136Z,37.00
2019-02-21T05:23:45.130Z,35.10
2019-02-21T05:24:45.127Z,35.60
2019-02-21T05:25:45.115Z,33.60
2019-02-21T05:26:45.107Z,35.50
2019-02-21T05:27:45.104Z,36.90
2019-02-21T05:28:45.097Z,35.80
2019-02-21T05:29:45.084Z,36.40
2019-02-21T05:30:45.096Z,37.20
2019-02-21T05:31:45.075Z,33.30
2019-02-21T05:32:45.065Z,36.50
2019-02-21T05:33:45.059Z,35.80
2019-02-21T05:34:45.051Z,33.10
2019-02-21T05:35:45.050Z,35.70
2019-02-21T05:36:45.037Z,36.50
2019-02-21T05:37:45.032Z,38.30
2019-02-21T05:38:45.025Z,36.70
2019-02-21T05:39:45.015Z,38.70
2019-02-21T05:40:45.013Z,40.20
2019-02-21T05:41:45.013Z,39.00
2019-02-21T05:42:44.997Z,37.50
2019-02-21T05:43:44.990Z,37.60
2019-02-21T05:44:44.979Z,41.20
2019-02-21T05:45:46.920Z,35.90
2019-02-21T05:46:44.970Z,36.10
2019-02-21T05:47:44.960Z,37.70
2019-02-21T05:48:44.952Z,38.60
2019-02-21T05:49:44.945Z,37.60
2019-02-21T05:50:44.940Z,37.60
2019-02-21T05:51:44.931Z,38.20
2019-02-21T05:52:44.924Z,39.10
2019-02-21T05:53:44.917Z,38.50
2019-02-21T05:54:44.910Z,36.30
2019-02-21T05:55:44.904Z,39.20
2019-02-21T05:56:44.894Z,38.90
2019-02-21T05:57:44.890Z,39.30
2019-02-21T05:58:44.887Z,38.40
2019-02-21T05:59:44.874Z,39.50
2019-02-21T06:00:44.865Z,38.20
2019-02-21T06:01:44.858Z,38.40
2019-02-21T06:02:53.134Z,38.00
2019-02-21T06:03:44.846Z,39.10
2019-02-21T06:04:44.842Z,38.90
2019-02-21T06:05:44.836Z,37.30
2019-02-21T06:06:44.823Z,40.90
2019-02-21T06:07:44.815Z,40.50
2019-02-21T06:08:44.809Z,37.70
2019-02-21T06:09:44.802Z,41.10
2019-02-21T06:10:44.795Z,40.90
2019-02-21T06:11:44.785Z,41.10
2019-02-21T06:12:44.779Z,40.80
2019-02-21T06:13:44.865Z,39.30
2019-02-21T06:14:44.764Z,39.00
2019-02-21T06:15:44.759Z,38.80
2019-02-21T06:16:44.749Z,39.80
2019-02-21T06:17:44.743Z,39.30
2019-02-21T06:18:44.739Z,40.10
2019-02-21T06:19:44.731Z,43.10
2019-02-21T06:20:44.720Z,40.30
2019-02-21T06:21:44.715Z,40.00
2019-02-21T06:22:44.707Z,40.80
2019-02-21T06:23:44.745Z,41.20
2019-02-21T06:24:44.691Z,39.30
2019-02-21T06:25:52.020Z,39.10
2019-02-21T06:26:44.685Z,41.90
2019-02-21T06:27:44.670Z,37.50
2019-02-21T06:28:44.665Z,42.10
2019-02-21T06:29:44.656Z,40.60
2019-02-21T06:30:44.651Z,40.00
2019-02-21T06:31:44.641Z,38.00
2019-02-21T06:32:44.635Z,43.80
2019-02-21T06:33:44.631Z,39.80
2019-02-21T06:34:44.619Z,40.20
2019-02-21T06:35:44.611Z,41.70
2019-02-21T06:36:44.614Z,40.60
2019-02-21T06:37:44.597Z,38.20
2019-02-21T06:38:44.590Z,39.90
2019-02-21T06:39:44.583Z,38.80
2019-02-21T06:40:47.001Z,38.30
2019-02-21T06:41:44.573Z,39.80
2019-02-21T06:42:44.563Z,40.10
2019-02-21T06:43:44.557Z,38.60
2019-02-21T06:44:44.557Z,40.10
2019-02-21T06:45:44.545Z,39.40
2019-02-21T06:46:44.533Z,38.80
2019-02-21T06:47:44.527Z,40.70
2019-02-21T06:48:44.517Z,37.00
2019-02-21T06:49:44.514Z,37.30
2019-02-21T06:50:44.519Z,39.70
2019-02-21T06:51:44.499Z,39.10
2019-02-21T06:52:44.489Z,39.00
2019-02-21T06:53:44.483Z,38.00
2019-02-21T06:54:44.475Z,37.40
2019-02-21T06:55:44.471Z,38.40
2019-02-21T06:56:44.461Z,39.00
2019-02-21T06:57:44.452Z,41.30
2019-02-21T06:58:44.449Z,38.70
2019-02-21T06:59:45.392Z,37.90
2019-02-21T07:00:46.183Z,40.70
2019-02-21T07:01:44.427Z,37.30
2019-02-21T07:02:44.420Z,38.50
2019-02-21T07:03:44.412Z,36.90
2019-02-21T07:04:44.406Z,36.30
2019-02-21T07:05:44.399Z,39.20
2019-02-21T07:06:44.389Z,36.40
2019-02-21T07:07:44.383Z,37.10
2019-02-21T07:08:44.380Z,38.10
2019-02-21T07:09:44.372Z,37.60
2019-02-21T07:10:44.363Z,36.10
2019-02-21T07:11:45.935Z,35.70
2019-02-21T07:12:44.351Z,38.30
2019-02-21T07:13:44.341Z,36.50
2019-02-21T07:14:44.335Z,35.80
2019-02-21T07:15:44.328Z,35.20
2019-02-21T07:16:44.322Z,35.50
2019-02-21T07:17:49.227Z,38.10
2019-02-21T07:18:44.308Z,36.60
2019-02-21T07:19:44.299Z,35.60
2019-02-21T07:20:44.297Z,34.30
2019-02-21T07:21:44.290Z,35.10
2019-02-21T07:22:44.280Z,36.60
2019-02-21T07:23:44.274Z,35.00
2019-02-21T07:24:44.265Z,35.70
2019-02-21T07:25:44.258Z,36.40
2019-02-21T07:26:44.253Z,35.00
2019-02-21T07:27:44.246Z,34.40
2019-02-21T07:28:44.237Z,34.90
2019-02-21T07:29:44.231Z,34.40
2019-02-21T07:30:44.221Z,34.50
2019-02-21T07:31:44.215Z,34.30
2019-02-21T07:32:44.209Z,34.20
2019-02-21T07:33:44.202Z,33.30
2019-02-21T07:34:44.194Z,33.50
2019-02-21T07:35:44.187Z,35.00
2019-02-21T07:36:44.181Z,34.20
2019-02-21T07:37:44.178Z,34.80
2019-02-21T07:38:44.174Z,33.00
2019-02-21T07:39:44.159Z,33.60
2019-02-21T07:40:44.159Z,33.30
2019-02-21T07:41:44.145Z,33.30
2019-02-21T07:42:44.138Z,34.90
2019-02-21T07:43:44.140Z,34.70
2019-02-21T07:44:45.384Z,35.90
2019-02-21T07:45:44.121Z,33.20
2019-02-21T07:46:46.285Z,35.20
2019-02-21T07:47:44.103Z,34.20
2019-02-21T07:48:44.096Z,34.80
2019-02-21T07:49:44.093Z,35.30
2019-02-21T07:50:44.086Z,32.70
2019-02-21T07:51:44.080Z,33.60
2019-02-21T07:52:44.069Z,38.10
2019-02-21T07:53:44.068Z,37.90
2019-02-21T07:54:44.055Z,34.80
2019-02-21T07:55:44.051Z,34.90
2019-02-21T07:56:44.045Z,38.20
2019-02-21T07:57:44.037Z,35.80
2019-02-21T07:58:44.032Z,35.10
2019-02-21T07:59:44.022Z,33.10
2019-02-21T08:00:44.016Z,33.70
2019-02-21T08:01:44.010Z,33.10
2019-02-21T08:02:44.002Z,34.90
2019-02-21T08:03:47.938Z,34.70
2019-02-21T08:04:43.990Z,34.60
2019-02-21T08:05:43.979Z,33.30
2019-02-21T08:06:43.973Z,33.60
2019-02-21T08:07:43.965Z,34.90
2019-02-21T08:08:45.008Z,37.20
2019-02-21T08:09:43.951Z,34.90
2019-02-21T08:10:43.944Z,36.20
2019-02-21T08:11:43.939Z,37.70
2019-02-21T08:12:43.938Z,34.90
2019-02-21T08:13:43.926Z,38.60
2019-02-21T08:14:43.917Z,38.90
2019-02-21T08:15:43.910Z,35.40
2019-02-21T08:16:43.906Z,36.80
2019-02-21T08:17:43.925Z,37.00
2019-02-21T08:18:43.968Z,34.30
2019-02-21T08:19:43.890Z,37.50
2019-02-21T08:20:43.878Z,38.40
2019-02-21T08:21:43.926Z,40.40
2019-02-21T08:22:43.858Z,37.40
2019-02-21T08:23:50.589Z,37.70
2019-02-21T08:24:43.849Z,38.80
2019-02-21T08:25:43.851Z,38.90
2019-02-21T08:26:43.842Z,37.80
2019-02-21T08:27:43.829Z,37.30
2019-02-21T08:28:43.824Z,37.70
2019-02-21T08:29:43.817Z,38.80
2019-02-21T08:30:43.811Z,39.40
2019-02-21T08:31:43.802Z,39.20
2019-02-21T08:32:43.798Z,41.50
2019-02-21T08:33:45.666Z,39.60
2019-02-21T08:34:43.783Z,38.60
2019-02-21T08:35:43.773Z,37.90
2019-02-21T08:36:43.770Z,38.50
2019-02-21T08:37:43.760Z,41.90
2019-02-21T08:38:43.753Z,41.50
2019-02-21T08:39:43.747Z,39.00
2019-02-21T08:40:43.744Z,40.20
2019-02-21T08:41:43.732Z,39.30
2019-02-21T08:42:43.723Z,40.80
2019-02-21T08:43:43.722Z,39.80
2019-02-21T08:44:43.718Z,39.90
2019-02-21T08:45:43.716Z,38.90
2019-02-21T08:46:43.701Z,38.40
2019-02-21T08:47:43.697Z,38.10
2019-02-21T08:48:43.690Z,39.50
2019-02-21T08:49:43.678Z,39.30
2019-02-21T08:50:43.671Z,40.90
2019-02-21T08:51:43.669Z,38.70
2019-02-21T08:52:43.661Z,39.30
2019-02-21T08:53:43.651Z,40.00
2019-02-21T08:54:43.642Z,39.70
2019-02-21T08:55:43.641Z,40.30
2019-02-21T08:56:43.635Z,40.60
2019-02-21T08:57:43.632Z,41.70
2019-02-21T08:58:43.621Z,39.40
2019-02-21T08:59:43.611Z,38.00
2019-02-21T09:00:43.607Z,40.60
2019-02-21T09:01:43.602Z,39.60
2019-02-21T09:02:43.594Z,41.30
2019-02-21T09:03:43.583Z,40.20
2019-02-21T09:04:43.729Z,38.60
2019-02-21T09:05:43.570Z,37.70
2019-02-21T09:06:43.565Z,37.80
2019-02-21T09:07:46.100Z,41.50
2019-02-21T09:08:43.551Z,37.00
2019-02-21T09:09:43.545Z,39.40
2019-02-21T09:10:43.538Z,40.00
2019-02-21T09:11:43.532Z,35.90
2019-02-21T09:12:47.780Z,38.40
2019-02-21T09:13:43.524Z,38.50
2019-02-21T09:14:43.512Z,37.90
2019-02-21T09:15:46.336Z,37.10
2019-02-21T09:16:43.503Z,35.70
2019-02-21T09:17:43.493Z,37.60
2019-02-21T09:18:43.485Z,37.20
2019-02-21T09:19:43.479Z,40.10
2019-02-21T09:20:43.476Z,38.60
2019-02-21T09:21:43.473Z,36.80
2019-02-21T09:22:43.483Z,37.80
2019-02-21T09:23:43.505Z,37.80
2019-02-21T09:24:43.444Z,37.70
2019-02-21T09:25:43.443Z,36.40
2019-02-21T09:26:43.436Z,34.40
2019-02-21T09:27:43.428Z,35.00
2019-02-21T09:28:43.421Z,34.70
2019-02-21T09:29:43.416Z,36.50
2019-02-21T09:30:43.409Z,34.50
2019-02-21T09:31:43.402Z,34.60
2019-02-21T09:32:43.405Z,35.60
2019-02-21T09:33:43.908Z,35.10
2019-02-21T09:34:43.384Z,35.50
2019-02-21T09:35:43.681Z,34.60
2019-02-21T09:36:44.268Z,34.00
2019-02-21T09:37:43.366Z,34.00
2019-02-21T09:38:43.362Z,34.60
2019-02-21T09:39:43.352Z,35.70
2019-02-21T09:40:43.347Z,33.40
2019-02-21T09:41:43.341Z,34.10
2019-02-21T09:42:43.332Z,33.30
2019-02-21T09:43:43.330Z,34.30
2019-02-21T09:44:43.322Z,31.90
2019-02-21T09:45:43.319Z,31.80
2019-02-21T09:46:43.309Z,32.10
2019-02-21T09:47:43.305Z,32.10
2019-02-21T09:48:43.301Z,31.70
2019-02-21T09:49:43.294Z,33.60
2019-02-21T09:50:43.286Z,32.90
2019-02-21T09:51:43.285Z,31.60
2019-02-21T09:52:43.273Z,31.00
2019-02-21T09:53:43.314Z,31.90
2019-02-21T09:54:43.263Z,30.80
2019-02-21T09:55:43.256Z,32.10
2019-02-21T09:56:52.317Z,31.40
2019-02-21T09:57:43.252Z,29.90
2019-02-21T09:58:45.725Z,30.90
2019-02-21T09:59:43.231Z,31.20
2019-02-21T10:00:43.228Z,31.10
2019-02-21T10:01:43.226Z,30.10
2019-02-21T10:02:43.216Z,29.70
2019-02-21T10:03:44.248Z,29.40
2019-02-21T10:04:43.202Z,29.50
2019-02-21T10:05:43.199Z,30.60
2019-02-21T10:06:43.270Z,30.40
2019-02-21T10:07:43.185Z,28.80
2019-02-21T10:08:43.334Z,31.20
2019-02-21T10:09:43.175Z,29.80
2019-02-21T10:10:43.175Z,28.80
2019-02-21T10:11:43.162Z,29.30
2019-02-21T10:12:43.157Z,29.20
2019-02-21T10:13:43.150Z,28.60
2019-02-21T10:14:43.145Z,27.60
2019-02-21T10:15:43.141Z,29.00
2019-02-21T10:16:43.135Z,27.90
2019-02-21T10:17:43.128Z,28.70
2019-02-21T10:18:43.122Z,27.20
2019-02-21T10:19:43.114Z,27.00
2019-02-21T10:20:43.108Z,27.20
2019-02-21T10:21:43.106Z,27.20
2019-02-21T10:22:43.096Z,28.60
2019-02-21T10:23:43.091Z,28.00
2019-02-21T10:24:43.086Z,27.70
2019-02-21T10:25:43.084Z,28.90
2019-02-21T10:26:43.075Z,27.70
2019-02-21T10:27:43.074Z,27.50
2019-02-21T10:28:45.066Z,27.70
2019-02-21T10:29:43.063Z,28.10
2019-02-21T10:30:43.053Z,27.10
2019-02-21T10:31:43.054Z,26.70
2019-02-21T10:32:43.112Z,27.60
2019-02-21T10:33:47.030Z,27.20
2019-02-21T10:34:43.586Z,26.40
2019-02-21T10:35:43.025Z,27.00
2019-02-21T10:36:43.015Z,26.60
2019-02-21T10:37:43.013Z,27.40
2019-02-21T10:38:43.017Z,25.90
2019-02-21T10:39:43.001Z,26.40
2019-02-21T10:40:42.993Z,25.00
2019-02-21T10:41:42.988Z,25.60
2019-02-21T10:42:42.981Z,25.40
2019-02-21T10:43:42.973Z,25.60
2019-02-21T10:44:42.970Z,25.10
2019-02-21T10:45:47.962Z,26.10
2019-02-21T10:46:42.970Z,25.60
2019-02-21T10:47:42.952Z,25.30
2019-02-21T10:48:42.948Z,25.40
2019-02-21T10:49:42.939Z,24.70
2019-02-21T10:50:42.936Z,24.90
2019-02-21T10:51:43.160Z,23.70
2019-02-21T10:52:42.926Z,24.90
2019-02-21T10:53:42.918Z,24.80
2019-02-21T10:54:42.911Z,25.10
2019-02-21T10:55:42.902Z,25.00
2019-02-21T10:56:42.898Z,25.00
2019-02-21T10:57:45.304Z,24.40
2019-02-21T10:58:42.890Z,24.40
2019-02-21T10:59:46.580Z,24.50
2019-02-21T11:00:42.877Z,24.80
2019-02-21T11:01:42.905Z,24.00
2019-02-21T11:02:42.866Z,23.50
2019-02-21T11:03:42.861Z,23.50
2019-02-21T11:04:54.085Z,23.50
2019-02-21T11:05:42.850Z,23.80
2019-02-21T11:06:42.840Z,23.60
2019-02-21T11:07:42.834Z,22.80
2019-02-21T11:08:42.832Z,23.30
2019-02-21T11:09:42.830Z,23.50
2019-02-21T11:10:42.817Z,23.80
2019-02-21T11:11:42.814Z,21.90
2019-02-21T11:12:42.808Z,22.10
2019-02-21T11:13:42.822Z,21.30
2019-02-21T11:14:47.618Z,21.20
2019-02-21T11:15:42.791Z,20.90
2019-02-21T11:16:42.783Z,21.30
2019-02-21T11:17:42.780Z,21.30
2019-02-21T11:18:42.772Z,22.80
2019-02-21T11:19:42.780Z,20.20
2019-02-21T11:20:42.761Z,21.30
2019-02-21T11:21:42.759Z,22.60
2019-02-21T11:22:42.751Z,21.90
2019-02-21T11:23:42.748Z,21.80
2019-02-21T11:24:42.742Z,21.00
2019-02-21T11:25:42.738Z,21.70
2019-02-21T11:26:42.731Z,20.70
2019-02-21T11:27:42.726Z,21.60
2019-02-21T11:28:42.720Z,21.50
2019-02-21T11:29:42.715Z,21.40
2019-02-21T11:30:42.710Z,20.90
2019-02-21T11:31:42.717Z,22.20
2019-02-21T11:32:42.700Z,20.80
2019-02-21T11:33:42.696Z,21.00
2019-02-21T11:34:42.712Z,20.70
2019-02-21T11:35:42.686Z,20.10
2019-02-21T11:36:42.678Z,20.00
2019-02-21T11:37:46.611Z,20.10
2019-02-21T11:38:42.669Z,19.40
2019-02-21T11:39:42.665Z,20.40
2019-02-21T11:40:42.662Z,19.50
2019-02-21T11:41:42.658Z,19.60
2019-02-21T11:42:42.652Z,19.10
2019-02-21T11:43:42.645Z,18.80
2019-02-21T11:44:42.641Z,19.30
2019-02-21T11:45:53.188Z,19.00
2019-02-21T11:46:42.634Z,19.80
2019-02-21T11:47:42.629Z,18.40
2019-02-21T11:48:42.622Z,19.50
2019-02-21T11:49:42.615Z,19.10
2019-02-21T11:50:42.609Z,18.70
2019-02-21T11:51:42.605Z,19.20
2019-02-21T11:52:42.606Z,19.30
2019-02-21T11:53:42.599Z,19.40
2019-02-21T11:54:42.592Z,19.20
2019-02-21T11:55:42.585Z,20.10
2019-02-21T11:56:42.582Z,19.30
2019-02-21T11:57:42.577Z,18.70
2019-02-21T11:58:42.572Z,18.50
2019-02-21T11:59:42.575Z,18.00
2019-02-21T12:00:42.558Z,17.50
2019-02-21T12:01:42.557Z,18.60
2019-02-21T12:02:42.550Z,18.60
2019-02-21T12:03:42.549Z,17.60
2019-02-21T12:04:42.542Z,18.10
2019-02-21T12:05:42.544Z,19.40
2019-02-21T12:06:42.533Z,17.40
2019-02-21T12:07:42.524Z,17.70
2019-02-21T12:08:42.528Z,16.80
2019-02-21T12:09:42.519Z,16.80
2019-02-21T12:10:42.513Z,16.90
2019-02-21T12:11:42.508Z,17.90
2019-02-21T12:12:42.503Z,17.10
2019-02-21T12:13:42.499Z,18.90
2019-02-21T12:14:42.491Z,16.10
2019-02-21T12:15:42.485Z,16.30
2019-02-21T12:16:42.548Z,17.40
2019-02-21T12:17:43.254Z,16.40
2019-02-21T12:18:42.473Z,16.70
2019-02-21T12:19:42.468Z,18.00
2019-02-21T12:20:42.465Z,16.40
2019-02-21T12:21:42.464Z,16.90
2019-02-21T12:22:42.458Z,14.80
2019-02-21T12:23:42.452Z,17.00
2019-02-21T12:24:42.448Z,15.70
2019-02-21T12:25:42.452Z,14.90
2019-02-21T12:26:42.437Z,16.90
2019-02-21T12:27:42.433Z,15.50
2019-02-21T12:28:42.430Z,16.40
2019-02-21T12:29:42.424Z,16.80
2019-02-21T12:30:42.420Z,17.90
2019-02-21T12:31:42.417Z,17.60
2019-02-21T12:32:42.415Z,16.80
2019-02-21T12:33:42.406Z,17.50
2019-02-21T12:34:42.399Z,16.20
2019-02-21T12:35:42.398Z,16.60
2019-02-21T12:36:42.405Z,14.90
2019-02-21T12:37:42.394Z,14.00
2019-02-21T12:38:42.387Z,16.70
2019-02-21T12:39:42.379Z,15.60
2019-02-21T12:40:42.370Z,16.90
2019-02-21T12:41:42.371Z,16.00
2019-02-21T12:42:42.364Z,18.50
2019-02-21T12:43:42.360Z,16.90
2019-02-21T12:44:42.355Z,15.40
2019-02-21T12:45:42.351Z,15.40
2019-02-21T12:46:42.345Z,15.20
2019-02-21T12:47:50.875Z,16.30
2019-02-21T12:48:42.335Z,14.80
2019-02-21T12:49:42.331Z,15.30
2019-02-21T12:50:44.472Z,17.30
2019-02-21T12:51:42.325Z,13.40
2019-02-21T12:52:42.323Z,13.10
2019-02-21T12:53:42.317Z,15.40
2019-02-21T12:54:42.312Z,13.00
2019-02-21T12:55:42.306Z,12.40
2019-02-21T12:56:42.322Z,13.00
2019-02-21T12:57:42.293Z,12.70
2019-02-21T12:58:45.064Z,11.10
2019-02-21T12:59:42.285Z,12.70
2019-02-21T13:00:42.285Z,11.00
2019-02-21T13:01:42.275Z,10.80
2019-02-21T13:02:42.271Z,11.30